sensor_id;sensor_type;location;lat;lon;timestamp;pressure;altitude;pressure_sealevel;temperature;humidity
79481;BME280;68944;48.262;14.208;2023-06-24T00:00:56;98893.69;;;16.99;67.99
79481;BME280;68944;48.262;14.208;2023-06-24T00:03:21;98896.09;;;17.17;67.66
79481;BME280;68944;48.262;14.208;2023-06-24T00:05:47;98906.63;;;17.24;67.58
79481;BME280;68944;48.262;14.208;2023-06-24T00:08:18;98903.81;;;17.36;67.19
79481;BME280;68944;48.262;14.208;2023-06-24T00:10:48;98897.78;;;17.24;67.36
79481;BME280;68944;48.262;14.208;2023-06-24T00:13:15;98900.63;;;17.17;67.44
79481;BME280;68944;48.262;14.208;2023-06-24T00:15:41;98910.38;;;17.06;67.98
79481;BME280;68944;48.262;14.208;2023-06-24T00:18:10;98914.66;;;17.07;68.18
79481;BME280;68944;48.262;14.208;2023-06-24T00:20:35;98903.75;;;16.91;68.78
79481;BME280;68944;48.262;14.208;2023-06-24T00:23:01;98928.88;;;17.08;68.48
79481;BME280;68944;48.262;14.208;2023-06-24T00:25:27;98927.22;;;17.24;68.03
79481;BME280;68944;48.262;14.208;2023-06-24T00:27:52;98921.31;;;17.22;67.90
79481;BME280;68944;48.262;14.208;2023-06-24T00:30:18;98933.13;;;17.26;68.51
79481;BME280;68944;48.262;14.208;2023-06-24T00:32:43;98930.63;;;17.19;68.30
79481;BME280;68944;48.262;14.208;2023-06-24T00:35:09;98929.63;;;17.25;69.10
79481;BME280;68944;48.262;14.208;2023-06-24T00:37:38;98935.50;;;17.22;69.30
79481;BME280;68944;48.262;14.208;2023-06-24T00:40:04;98928.84;;;17.25;69.87
79481;BME280;68944;48.262;14.208;2023-06-24T00:42:30;98923.16;;;17.21;70.12
79481;BME280;68944;48.262;14.208;2023-06-24T00:44:56;98927.03;;;17.31;69.82
79481;BME280;68944;48.262;14.208;2023-06-24T00:47:22;98915.22;;;17.26;70.10
79481;BME280;68944;48.262;14.208;2023-06-24T00:49:49;98919.94;;;17.19;70.21
79481;BME280;68944;48.262;14.208;2023-06-24T00:52:14;98920.09;;;17.12;70.32
79481;BME280;68944;48.262;14.208;2023-06-24T00:54:44;98907.72;;;17.06;70.88
79481;BME280;68944;48.262;14.208;2023-06-24T00:57:10;98900.72;;;17.05;70.85
79481;BME280;68944;48.262;14.208;2023-06-24T00:59:37;98902.09;;;16.85;71.30
79481;BME280;68944;48.262;14.208;2023-06-24T01:02:04;98904.50;;;16.87;71.51
79481;BME280;68944;48.262;14.208;2023-06-24T01:04:33;98914.31;;;16.81;72.03
79481;BME280;68944;48.262;14.208;2023-06-24T01:07:00;98915.38;;;16.80;71.83
79481;BME280;68944;48.262;14.208;2023-06-24T01:09:27;98915.31;;;16.75;71.63
79481;BME280;68944;48.262;14.208;2023-06-24T01:11:53;98907.19;;;16.69;71.66
79481;BME280;68944;48.262;14.208;2023-06-24T01:14:18;98907.53;;;16.73;71.69
79481;BME280;68944;48.262;14.208;2023-06-24T01:36:38;98951.44;;;16.94;70.35
79481;BME280;68944;48.262;14.208;2023-06-24T01:39:09;98945.59;;;16.98;70.34
79481;BME280;68944;48.262;14.208;2023-06-24T01:41:49;98950.28;;;17.08;70.19
79481;BME280;68944;48.262;14.208;2023-06-24T01:44:17;98946.31;;;16.93;70.44
79481;BME280;68944;48.262;14.208;2023-06-24T01:46:46;98955.31;;;17.04;70.20
79481;BME280;68944;48.262;14.208;2023-06-24T01:49:14;98948.22;;;16.92;70.29
79481;BME280;68944;48.262;14.208;2023-06-24T01:51:42;98961.16;;;17.01;70.22
79481;BME280;68944;48.262;14.208;2023-06-24T01:54:15;98972.34;;;16.98;69.88
79481;BME280;68944;48.262;14.208;2023-06-24T01:56:45;98957.41;;;17.02;69.93
79481;BME280;68944;48.262;14.208;2023-06-24T01:59:14;98966.94;;;16.92;70.12
79481;BME280;68944;48.262;14.208;2023-06-24T02:01:41;98961.00;;;16.90;69.96
79481;BME280;68944;48.262;14.208;2023-06-24T02:04:09;98966.03;;;16.87;70.39
79481;BME280;68944;48.262;14.208;2023-06-24T02:06:36;98967.22;;;16.74;70.60
79481;BME280;68944;48.262;14.208;2023-06-24T02:09:04;98962.47;;;16.81;70.35
79481;BME280;68944;48.262;14.208;2023-06-24T02:11:32;98968.06;;;16.97;70.06
79481;BME280;68944;48.262;14.208;2023-06-24T02:13:59;98971.16;;;16.88;70.17
79481;BME280;68944;48.262;14.208;2023-06-24T02:16:27;98972.22;;;16.87;70.00
79481;BME280;68944;48.262;14.208;2023-06-24T02:18:55;98961.44;;;16.82;70.62
79481;BME280;68944;48.262;14.208;2023-06-24T02:21:23;98973.69;;;16.78;71.07
79481;BME280;68944;48.262;14.208;2023-06-24T02:23:51;98979.69;;;16.85;71.44
79481;BME280;68944;48.262;14.208;2023-06-24T02:26:17;98963.28;;;16.81;71.78
79481;BME280;68944;48.262;14.208;2023-06-24T02:28:47;98940.19;;;16.75;72.03
79481;BME280;68944;48.262;14.208;2023-06-24T02:31:14;98971.09;;;16.83;72.34
79481;BME280;68944;48.262;14.208;2023-06-24T02:33:40;98965.00;;;16.70;72.60
79481;BME280;68944;48.262;14.208;2023-06-24T02:36:05;98981.53;;;16.67;73.26
79481;BME280;68944;48.262;14.208;2023-06-24T02:38:31;98972.63;;;16.79;72.91
79481;BME280;68944;48.262;14.208;2023-06-24T02:40:57;98988.53;;;16.68;73.29
79481;BME280;68944;48.262;14.208;2023-06-24T02:43:23;98974.88;;;16.70;73.11
79481;BME280;68944;48.262;14.208;2023-06-24T02:45:49;98973.38;;;16.57;73.55
79481;BME280;68944;48.262;14.208;2023-06-24T02:48:17;98976.59;;;16.59;73.46
79481;BME280;68944;48.262;14.208;2023-06-24T02:50:44;98971.31;;;16.47;73.68
79481;BME280;68944;48.262;14.208;2023-06-24T02:53:14;98981.00;;;16.48;73.85
79481;BME280;68944;48.262;14.208;2023-06-24T02:55:41;98976.50;;;16.54;73.40
79481;BME280;68944;48.262;14.208;2023-06-24T02:58:08;98984.88;;;16.57;73.50
79481;BME280;68944;48.262;14.208;2023-06-24T03:00:37;98979.03;;;16.60;73.30
79481;BME280;68944;48.262;14.208;2023-06-24T03:03:10;98982.94;;;16.53;73.43
79481;BME280;68944;48.262;14.208;2023-06-24T03:05:41;98986.19;;;16.55;73.28
79481;BME280;68944;48.262;14.208;2023-06-24T03:08:10;98985.53;;;16.47;73.51
79481;BME280;68944;48.262;14.208;2023-06-24T03:10:36;98990.22;;;16.57;73.13
79481;BME280;68944;48.262;14.208;2023-06-24T03:13:04;98982.94;;;16.53;73.27
79481;BME280;68944;48.262;14.208;2023-06-24T03:15:39;98995.81;;;16.56;73.45
79481;BME280;68944;48.262;14.208;2023-06-24T03:18:05;98978.13;;;16.37;73.36
79481;BME280;68944;48.262;14.208;2023-06-24T03:20:31;98994.59;;;16.46;73.77
79481;BME280;68944;48.262;14.208;2023-06-24T03:23:08;98999.09;;;16.29;74.12
79481;BME280;68944;48.262;14.208;2023-06-24T03:25:35;98995.41;;;16.47;74.09
79481;BME280;68944;48.262;14.208;2023-06-24T03:28:01;99000.09;;;16.40;73.97
79481;BME280;68944;48.262;14.208;2023-06-24T03:30:31;98996.69;;;16.27;74.13
79481;BME280;68944;48.262;14.208;2023-06-24T03:32:57;99001.00;;;16.45;73.51
79481;BME280;68944;48.262;14.208;2023-06-24T03:35:23;99003.00;;;16.38;73.96
79481;BME280;68944;48.262;14.208;2023-06-24T03:37:49;99003.16;;;16.48;73.73
79481;BME280;68944;48.262;14.208;2023-06-24T03:40:14;99013.31;;;16.46;73.95
79481;BME280;68944;48.262;14.208;2023-06-24T03:42:40;99020.69;;;16.56;73.63
79481;BME280;68944;48.262;14.208;2023-06-24T03:45:06;99011.53;;;16.52;73.42
79481;BME280;68944;48.262;14.208;2023-06-24T03:47:32;99019.88;;;16.56;73.42
79481;BME280;68944;48.262;14.208;2023-06-24T03:49:58;99010.97;;;16.50;73.56
79481;BME280;68944;48.262;14.208;2023-06-24T03:52:24;99021.00;;;16.43;73.65
79481;BME280;68944;48.262;14.208;2023-06-24T03:54:50;99021.31;;;16.46;73.61
79481;BME280;68944;48.262;14.208;2023-06-24T03:57:16;99026.66;;;16.29;73.84
79481;BME280;68944;48.262;14.208;2023-06-24T03:59:42;99021.97;;;16.36;73.74
79481;BME280;68944;48.262;14.208;2023-06-24T04:02:07;99027.66;;;16.40;73.92
79481;BME280;68944;48.262;14.208;2023-06-24T04:04:34;99025.47;;;16.54;73.49
79481;BME280;68944;48.262;14.208;2023-06-24T04:06:59;99020.84;;;16.49;73.26
79481;BME280;68944;48.262;14.208;2023-06-24T04:09:25;99020.19;;;16.42;73.46
79481;BME280;68944;48.262;14.208;2023-06-24T04:11:52;99031.84;;;16.36;73.37
79481;BME280;68944;48.262;14.208;2023-06-24T04:14:17;99016.53;;;16.31;73.35
79481;BME280;68944;48.262;14.208;2023-06-24T04:16:43;99032.16;;;16.22;73.94
79481;BME280;68944;48.262;14.208;2023-06-24T04:19:09;99028.47;;;16.41;73.74
79481;BME280;68944;48.262;14.208;2023-06-24T04:21:34;99044.31;;;16.30;73.69
79481;BME280;68944;48.262;14.208;2023-06-24T04:24:00;99036.38;;;16.35;73.79
79481;BME280;68944;48.262;14.208;2023-06-24T04:26:25;99046.25;;;16.35;73.83
79481;BME280;68944;48.262;14.208;2023-06-24T04:28:51;99046.25;;;16.35;73.65
79481;BME280;68944;48.262;14.208;2023-06-24T04:31:17;99050.75;;;16.46;73.72
79481;BME280;68944;48.262;14.208;2023-06-24T04:33:42;99044.34;;;16.47;73.44
79481;BME280;68944;48.262;14.208;2023-06-24T04:36:08;99049.13;;;16.45;73.25
79481;BME280;68944;48.262;14.208;2023-06-24T04:38:33;99064.59;;;16.43;73.43
79481;BME280;68944;48.262;14.208;2023-06-24T04:41:00;99056.53;;;16.55;73.22
79481;BME280;68944;48.262;14.208;2023-06-24T04:43:26;99064.78;;;16.54;73.38
79481;BME280;68944;48.262;14.208;2023-06-24T04:45:53;99054.13;;;16.24;73.91
79481;BME280;68944;48.262;14.208;2023-06-24T04:48:22;99064.22;;;16.22;74.38
79481;BME280;68944;48.262;14.208;2023-06-24T04:50:47;99059.41;;;16.07;74.55
79481;BME280;68944;48.262;14.208;2023-06-24T04:53:13;99068.81;;;16.10;74.87
79481;BME280;68944;48.262;14.208;2023-06-24T04:55:38;99061.22;;;16.19;74.39
79481;BME280;68944;48.262;14.208;2023-06-24T04:58:04;99077.41;;;16.41;74.10
79481;BME280;68944;48.262;14.208;2023-06-24T05:00:29;99076.38;;;16.30;74.42
79481;BME280;68944;48.262;14.208;2023-06-24T05:02:55;99078.84;;;16.32;74.20
79481;BME280;68944;48.262;14.208;2023-06-24T05:05:20;99073.91;;;16.11;74.76
79481;BME280;68944;48.262;14.208;2023-06-24T05:07:46;99085.38;;;16.24;74.42
79481;BME280;68944;48.262;14.208;2023-06-24T05:10:11;99090.69;;;16.07;75.15
79481;BME280;68944;48.262;14.208;2023-06-24T05:12:37;99101.94;;;16.09;74.95
79481;BME280;68944;48.262;14.208;2023-06-24T05:15:02;99083.44;;;16.07;75.25
79481;BME280;68944;48.262;14.208;2023-06-24T05:17:28;99095.53;;;16.10;74.98
79481;BME280;68944;48.262;14.208;2023-06-24T05:19:53;99106.94;;;16.05;75.68
79481;BME280;68944;48.262;14.208;2023-06-24T05:22:19;99113.88;;;16.18;75.22
79481;BME280;68944;48.262;14.208;2023-06-24T05:24:44;99108.19;;;16.02;75.55
79481;BME280;68944;48.262;14.208;2023-06-24T05:27:10;99120.66;;;16.09;75.54
79481;BME280;68944;48.262;14.208;2023-06-24T05:29:36;99118.63;;;16.16;75.10
79481;BME280;68944;48.262;14.208;2023-06-24T05:32:01;99121.56;;;16.14;75.41
79481;BME280;68944;48.262;14.208;2023-06-24T05:34:29;99107.38;;;16.14;75.43
79481;BME280;68944;48.262;14.208;2023-06-24T05:36:55;99116.19;;;16.02;75.76
79481;BME280;68944;48.262;14.208;2023-06-24T05:39:21;99128.09;;;16.07;75.59
79481;BME280;68944;48.262;14.208;2023-06-24T05:41:46;99132.47;;;16.01;75.65
79481;BME280;68944;48.262;14.208;2023-06-24T05:44:14;99122.50;;;15.96;75.93
79481;BME280;68944;48.262;14.208;2023-06-24T05:46:40;99136.31;;;15.93;75.85
79481;BME280;68944;48.262;14.208;2023-06-24T05:49:05;99119.13;;;16.01;75.22
79481;BME280;68944;48.262;14.208;2023-06-24T05:51:31;99133.25;;;16.25;74.86
79481;BME280;68944;48.262;14.208;2023-06-24T05:53:56;99122.84;;;16.12;74.69
79481;BME280;68944;48.262;14.208;2023-06-24T05:56:22;99141.53;;;16.24;74.62
79481;BME280;68944;48.262;14.208;2023-06-24T05:58:48;99133.25;;;16.25;74.16
79481;BME280;68944;48.262;14.208;2023-06-24T06:01:14;99146.75;;;16.19;74.21
79481;BME280;68944;48.262;14.208;2023-06-24T06:03:40;99130.38;;;16.15;74.03
79481;BME280;68944;48.262;14.208;2023-06-24T06:06:06;99148.88;;;16.04;73.95
79481;BME280;68944;48.262;14.208;2023-06-24T06:08:32;99132.00;;;16.16;73.79
79481;BME280;68944;48.262;14.208;2023-06-24T06:10:59;99143.63;;;16.10;73.64
79481;BME280;68944;48.262;14.208;2023-06-24T06:13:25;99154.50;;;16.32;73.56
79481;BME280;68944;48.262;14.208;2023-06-24T06:15:51;99152.06;;;16.31;72.88
79481;BME280;68944;48.262;14.208;2023-06-24T06:18:16;99161.34;;;16.40;72.84
79481;BME280;68944;48.262;14.208;2023-06-24T06:20:42;99153.56;;;16.38;72.44
79481;BME280;68944;48.262;14.208;2023-06-24T06:23:07;99139.84;;;16.35;72.75
79481;BME280;68944;48.262;14.208;2023-06-24T06:25:33;99154.41;;;16.39;72.78
79481;BME280;68944;48.262;14.208;2023-06-24T06:27:58;99155.03;;;16.46;72.79
79481;BME280;68944;48.262;14.208;2023-06-24T06:30:24;99159.34;;;16.47;72.33
79481;BME280;68944;48.262;14.208;2023-06-24T06:32:49;99164.13;;;16.45;72.43
79481;BME280;68944;48.262;14.208;2023-06-24T06:35:15;99164.22;;;16.51;72.67
79481;BME280;68944;48.262;14.208;2023-06-24T06:37:40;99159.75;;;16.39;72.72
79481;BME280;68944;48.262;14.208;2023-06-24T06:40:06;99169.38;;;16.40;73.14
79481;BME280;68944;48.262;14.208;2023-06-24T06:42:32;99155.19;;;16.40;72.92
79481;BME280;68944;48.262;14.208;2023-06-24T06:44:58;99172.84;;;16.53;72.45
79481;BME280;68944;48.262;14.208;2023-06-24T06:47:23;99175.22;;;16.66;72.35
79481;BME280;68944;48.262;14.208;2023-06-24T06:49:49;99173.25;;;16.62;72.48
79481;BME280;68944;48.262;14.208;2023-06-24T06:52:14;99168.72;;;16.62;72.29
79481;BME280;68944;48.262;14.208;2023-06-24T06:54:40;99153.00;;;16.66;71.86
79481;BME280;68944;48.262;14.208;2023-06-24T06:57:05;99160.47;;;16.81;71.89
79481;BME280;68944;48.262;14.208;2023-06-24T06:59:31;99168.59;;;16.69;72.13
79481;BME280;68944;48.262;14.208;2023-06-24T07:01:57;99176.13;;;16.72;72.16
79481;BME280;68944;48.262;14.208;2023-06-24T07:04:23;99178.50;;;16.86;72.05
79481;BME280;68944;48.262;14.208;2023-06-24T07:06:49;99178.22;;;16.99;71.48
79481;BME280;68944;48.262;14.208;2023-06-24T07:09:14;99171.47;;;16.97;72.03
79481;BME280;68944;48.262;14.208;2023-06-24T07:11:43;99166.69;;;16.99;71.54
79481;BME280;68944;48.262;14.208;2023-06-24T07:14:09;99171.53;;;16.85;71.67
79481;BME280;68944;48.262;14.208;2023-06-24T07:16:35;99169.06;;;17.12;71.50
79481;BME280;68944;48.262;14.208;2023-06-24T07:19:00;99175.03;;;17.02;71.44
79481;BME280;68944;48.262;14.208;2023-06-24T07:21:26;99174.94;;;16.97;71.51
79481;BME280;68944;48.262;14.208;2023-06-24T07:23:51;99183.41;;;17.06;71.04
79481;BME280;68944;48.262;14.208;2023-06-24T07:26:17;99170.25;;;17.04;71.50
79481;BME280;68944;48.262;14.208;2023-06-24T07:28:42;99161.19;;;17.05;71.22
79481;BME280;68944;48.262;14.208;2023-06-24T07:31:08;99179.88;;;17.17;70.96
79481;BME280;68944;48.262;14.208;2023-06-24T07:33:34;99180.78;;;17.23;70.98
79481;BME280;68944;48.262;14.208;2023-06-24T07:36:00;99179.41;;;17.38;70.87
79481;BME280;68944;48.262;14.208;2023-06-24T07:38:25;99193.69;;;17.26;70.69
79481;BME280;68944;48.262;14.208;2023-06-24T07:40:51;99195.13;;;17.34;70.99
79481;BME280;68944;48.262;14.208;2023-06-24T07:43:16;99196.28;;;17.38;70.73
79481;BME280;68944;48.262;14.208;2023-06-24T07:45:42;99197.97;;;17.27;70.38
79481;BME280;68944;48.262;14.208;2023-06-24T07:48:08;99197.50;;;17.31;70.68
79481;BME280;68944;48.262;14.208;2023-06-24T07:50:34;99208.63;;;17.39;70.91
79481;BME280;68944;48.262;14.208;2023-06-24T07:53:01;99180.28;;;17.26;70.43
79481;BME280;68944;48.262;14.208;2023-06-24T07:55:27;99214.63;;;17.47;70.39
79481;BME280;68944;48.262;14.208;2023-06-24T07:57:53;99208.84;;;17.21;70.83
79481;BME280;68944;48.262;14.208;2023-06-24T08:00:18;99205.53;;;17.31;70.88
79481;BME280;68944;48.262;14.208;2023-06-24T08:02:44;99202.19;;;17.23;71.06
79481;BME280;68944;48.262;14.208;2023-06-24T08:05:09;99211.03;;;17.24;70.76
79481;BME280;68944;48.262;14.208;2023-06-24T08:07:36;99203.75;;;17.19;70.99
79481;BME280;68944;48.262;14.208;2023-06-24T08:10:02;99213.75;;;17.12;71.17
79481;BME280;68944;48.262;14.208;2023-06-24T08:12:28;99214.44;;;17.19;71.16
79481;BME280;68944;48.262;14.208;2023-06-24T08:14:53;99209.59;;;17.33;70.78
79481;BME280;68944;48.262;14.208;2023-06-24T08:17:18;99193.53;;;17.33;70.64
79481;BME280;68944;48.262;14.208;2023-06-24T08:19:44;99207.06;;;17.26;70.63
79481;BME280;68944;48.262;14.208;2023-06-24T08:22:09;99211.19;;;17.34;71.03
79481;BME280;68944;48.262;14.208;2023-06-24T08:24:36;99213.25;;;17.27;70.86
79481;BME280;68944;48.262;14.208;2023-06-24T08:27:02;99216.41;;;17.24;71.21
79481;BME280;68944;48.262;14.208;2023-06-24T08:29:27;99215.84;;;17.39;70.91
79481;BME280;68944;48.262;14.208;2023-06-24T08:31:53;99219.50;;;17.33;70.63
79481;BME280;68944;48.262;14.208;2023-06-24T08:34:19;99207.16;;;17.32;70.86
79481;BME280;68944;48.262;14.208;2023-06-24T08:36:44;99212.69;;;17.42;70.81
79481;BME280;68944;48.262;14.208;2023-06-24T08:39:09;99220.28;;;17.50;70.97
79481;BME280;68944;48.262;14.208;2023-06-24T08:41:35;99223.88;;;17.56;70.73
79481;BME280;68944;48.262;14.208;2023-06-24T08:44:00;99234.41;;;17.46;70.67
79481;BME280;68944;48.262;14.208;2023-06-24T08:46:27;99223.56;;;17.35;70.91
79481;BME280;68944;48.262;14.208;2023-06-24T08:51:35;99239.00;;;17.16;71.79
79481;BME280;68944;48.262;14.208;2023-06-24T08:54:06;99228.66;;;17.20;71.48
79481;BME280;68944;48.262;14.208;2023-06-24T08:56:32;99244.31;;;17.28;71.58
79481;BME280;68944;48.262;14.208;2023-06-24T08:58:58;99246.69;;;17.12;71.98
79481;BME280;68944;48.262;14.208;2023-06-24T09:01:25;99239.13;;;17.09;72.46
79481;BME280;68944;48.262;14.208;2023-06-24T09:03:51;99242.19;;;17.30;72.13
79481;BME280;68944;48.262;14.208;2023-06-24T09:06:17;99235.25;;;17.29;71.73
79481;BME280;68944;48.262;14.208;2023-06-24T09:08:52;99242.16;;;17.13;72.04
79481;BME280;68944;48.262;14.208;2023-06-24T09:11:25;99235.16;;;16.94;72.51
79481;BME280;68944;48.262;14.208;2023-06-24T09:13:59;99246.78;;;16.88;72.76
79481;BME280;68944;48.262;14.208;2023-06-24T09:16:25;99238.56;;;16.78;72.93
79481;BME280;68944;48.262;14.208;2023-06-24T09:18:54;99251.84;;;17.02;72.68
79481;BME280;68944;48.262;14.208;2023-06-24T09:21:27;99256.84;;;17.10;72.63
79481;BME280;68944;48.262;14.208;2023-06-24T09:23:57;99245.06;;;17.11;72.45
79481;BME280;68944;48.262;14.208;2023-06-24T09:26:24;99256.16;;;17.03;72.64
79481;BME280;68944;48.262;14.208;2023-06-24T09:28:50;99257.03;;;16.91;72.96
79481;BME280;68944;48.262;14.208;2023-06-24T09:31:17;99245.09;;;16.70;73.52
79481;BME280;68944;48.262;14.208;2023-06-24T09:33:44;99252.53;;;16.80;73.66
79481;BME280;68944;48.262;14.208;2023-06-24T09:36:14;99253.38;;;16.98;73.33
79481;BME280;68944;48.262;14.208;2023-06-24T09:38:41;99253.88;;;16.94;73.20
79481;BME280;68944;48.262;14.208;2023-06-24T09:41:08;99238.84;;;16.93;73.09
79481;BME280;68944;48.262;14.208;2023-06-24T09:43:37;99239.63;;;17.06;72.92
79481;BME280;68944;48.262;14.208;2023-06-24T09:46:05;99229.56;;;17.13;72.51
79481;BME280;68944;48.262;14.208;2023-06-24T09:48:32;99245.19;;;17.16;72.52
79481;BME280;68944;48.262;14.208;2023-06-24T09:51:03;99250.50;;;16.99;72.96
79481;BME280;68944;48.262;14.208;2023-06-24T09:53:33;99238.25;;;17.03;73.07
79481;BME280;68944;48.262;14.208;2023-06-24T09:56:00;99239.13;;;17.09;72.66
79481;BME280;68944;48.262;14.208;2023-06-24T09:58:31;99236.47;;;17.09;72.52
79481;BME280;68944;48.262;14.208;2023-06-24T10:01:03;99243.91;;;17.07;72.60
79481;BME280;68944;48.262;14.208;2023-06-24T10:03:32;99232.31;;;17.01;72.31
79481;BME280;68944;48.262;14.208;2023-06-24T10:05:59;99237.03;;;17.11;72.02
79481;BME280;68944;48.262;14.208;2023-06-24T10:08:26;99229.50;;;17.08;71.77
79481;BME280;68944;48.262;14.208;2023-06-24T10:10:52;99230.53;;;17.07;71.61
79481;BME280;68944;48.262;14.208;2023-06-24T10:13:20;99230.53;;;17.07;71.36
79481;BME280;68944;48.262;14.208;2023-06-24T10:15:46;99232.38;;;17.19;70.43
79481;BME280;68944;48.262;14.208;2023-06-24T10:20:56;99220.41;;;17.09;70.26
79481;BME280;68944;48.262;14.208;2023-06-24T10:23:21;99221.94;;;17.05;70.33
79481;BME280;68944;48.262;14.208;2023-06-24T10:25:48;99226.72;;;17.03;70.23
79481;BME280;68944;48.262;14.208;2023-06-24T10:28:13;99218.38;;;16.99;70.60
79481;BME280;68944;48.262;14.208;2023-06-24T10:30:39;99221.84;;;17.00;70.25
79481;BME280;68944;48.262;14.208;2023-06-24T10:33:09;99229.41;;;17.03;70.04
79481;BME280;68944;48.262;14.208;2023-06-24T10:35:41;99218.59;;;16.98;70.00
79481;BME280;68944;48.262;14.208;2023-06-24T10:38:10;99213.16;;;17.22;69.84
79481;BME280;68944;48.262;14.208;2023-06-24T10:40:43;99206.81;;;17.28;68.94
79481;BME280;68944;48.262;14.208;2023-06-24T10:45:50;99197.75;;;17.29;68.30
79481;BME280;68944;48.262;14.208;2023-06-24T10:48:17;99197.91;;;17.39;68.12
79481;BME280;68944;48.262;14.208;2023-06-24T10:50:44;99198.16;;;17.38;68.25
79481;BME280;68944;48.262;14.208;2023-06-24T10:53:12;99191.72;;;17.56;67.93
79481;BME280;68944;48.262;14.208;2023-06-24T10:55:39;99192.53;;;17.74;67.73
79481;BME280;68944;48.262;14.208;2023-06-24T10:58:12;99174.03;;;17.55;67.31
79481;BME280;68944;48.262;14.208;2023-06-24T11:00:39;99182.72;;;17.62;67.78
79481;BME280;68944;48.262;14.208;2023-06-24T11:03:13;99178.34;;;17.56;67.98
79481;BME280;68944;48.262;14.208;2023-06-24T11:05:40;99171.50;;;17.66;67.74
79481;BME280;68944;48.262;14.208;2023-06-24T11:08:07;99165.91;;;17.67;67.62
79481;BME280;68944;48.262;14.208;2023-06-24T11:10:33;99162.75;;;17.70;67.68
79481;BME280;68944;48.262;14.208;2023-06-24T11:13:04;99161.84;;;18.04;67.38
79481;BME280;68944;48.262;14.208;2023-06-24T11:15:31;99163.59;;;18.16;66.71
79481;BME280;68944;48.262;14.208;2023-06-24T11:17:57;99156.63;;;18.15;66.53
79481;BME280;68944;48.262;14.208;2023-06-24T11:20:22;99158.19;;;18.33;66.40
79481;BME280;68944;48.262;14.208;2023-06-24T11:22:48;99146.38;;;18.57;66.07
79481;BME280;68944;48.262;14.208;2023-06-24T11:25:20;99153.00;;;18.76;65.95
79481;BME280;68944;48.262;14.208;2023-06-24T11:27:53;99144.66;;;19.06;64.79
79481;BME280;68944;48.262;14.208;2023-06-24T11:30:19;99151.41;;;19.08;64.85
79481;BME280;68944;48.262;14.208;2023-06-24T11:32:45;99140.06;;;19.01;64.25
79481;BME280;68944;48.262;14.208;2023-06-24T11:35:12;99147.69;;;18.82;64.71
79481;BME280;68944;48.262;14.208;2023-06-24T11:37:41;99141.56;;;18.86;65.23
79481;BME280;68944;48.262;14.208;2023-06-24T11:40:08;99138.78;;;19.09;65.44
79481;BME280;68944;48.262;14.208;2023-06-24T11:42:41;99137.28;;;19.18;64.67
79481;BME280;68944;48.262;14.208;2023-06-24T11:45:11;99131.44;;;19.27;64.29
79481;BME280;68944;48.262;14.208;2023-06-24T11:47:38;99126.25;;;19.53;64.18
79481;BME280;68944;48.262;14.208;2023-06-24T11:50:05;99130.06;;;19.62;63.44
79481;BME280;68944;48.262;14.208;2023-06-24T11:52:41;99125.97;;;19.54;63.99
79481;BME280;68944;48.262;14.208;2023-06-24T11:55:19;99126.34;;;19.74;63.46
79481;BME280;68944;48.262;14.208;2023-06-24T11:57:57;99121.47;;;19.65;63.59
79481;BME280;68944;48.262;14.208;2023-06-24T12:00:26;99126.88;;;19.71;62.71
79481;BME280;68944;48.262;14.208;2023-06-24T12:02:53;99115.13;;;19.82;63.15
79481;BME280;68944;48.262;14.208;2023-06-24T12:05:23;99114.84;;;19.84;63.03
79481;BME280;68944;48.262;14.208;2023-06-24T12:07:56;99103.03;;;19.90;62.83
79481;BME280;68944;48.262;14.208;2023-06-24T12:10:22;99115.47;;;20.01;62.02
79481;BME280;68944;48.262;14.208;2023-06-24T12:12:48;99112.06;;;20.17;61.89
79481;BME280;68944;48.262;14.208;2023-06-24T12:15:13;99113.16;;;20.31;61.86
79481;BME280;68944;48.262;14.208;2023-06-24T12:17:39;99112.13;;;20.48;61.03
79481;BME280;68944;48.262;14.208;2023-06-24T12:20:05;99112.97;;;20.69;60.56
79481;BME280;68944;48.262;14.208;2023-06-24T12:22:31;99108.66;;;20.74;59.99
79481;BME280;68944;48.262;14.208;2023-06-24T12:24:56;99108.41;;;21.22;60.13
79481;BME280;68944;48.262;14.208;2023-06-24T12:27:22;99106.16;;;21.66;59.20
79481;BME280;68944;48.262;14.208;2023-06-24T12:29:47;99110.94;;;21.96;57.98
79481;BME280;68944;48.262;14.208;2023-06-24T12:32:13;99094.91;;;22.20;56.87
79481;BME280;68944;48.262;14.208;2023-06-24T12:34:38;99099.88;;;22.48;56.63
79481;BME280;68944;48.262;14.208;2023-06-24T12:37:04;99095.53;;;22.52;54.43
79481;BME280;68944;48.262;14.208;2023-06-24T12:39:29;99089.16;;;21.81;54.91
79481;BME280;68944;48.262;14.208;2023-06-24T12:41:55;99081.84;;;21.82;55.41
79481;BME280;68944;48.262;14.208;2023-06-24T12:44:20;99092.66;;;21.77;54.15
79481;BME280;68944;48.262;14.208;2023-06-24T12:46:46;99076.50;;;21.71;53.44
79481;BME280;68944;48.262;14.208;2023-06-24T12:49:11;99077.38;;;22.17;52.62
79481;BME280;68944;48.262;14.208;2023-06-24T12:51:37;99070.34;;;22.22;52.54
79481;BME280;68944;48.262;14.208;2023-06-24T12:54:02;99073.13;;;22.06;52.13
79481;BME280;68944;48.262;14.208;2023-06-24T12:56:28;99073.13;;;22.11;51.73
79481;BME280;68944;48.262;14.208;2023-06-24T12:58:53;99075.88;;;21.96;52.46
79481;BME280;68944;48.262;14.208;2023-06-24T13:01:18;99069.94;;;21.99;52.87
79481;BME280;68944;48.262;14.208;2023-06-24T13:03:44;99078.13;;;21.67;52.80
79481;BME280;68944;48.262;14.208;2023-06-24T13:06:10;99077.44;;;21.20;53.50
79481;BME280;68944;48.262;14.208;2023-06-24T13:08:35;99077.41;;;20.94;54.15
79481;BME280;68944;48.262;14.208;2023-06-24T13:11:00;99065.06;;;21.08;53.85
79481;BME280;68944;48.262;14.208;2023-06-24T13:13:26;99057.75;;;21.24;54.08
79481;BME280;68944;48.262;14.208;2023-06-24T13:15:51;99066.31;;;21.53;52.81